sensor_id;sensor_type;location;lat;lon;timestamp;temperature;humidity
5697;DHT22;2873;50.966;7.210;2023-03-11T00:01:39;3.00;99.90
5697;DHT22;2873;50.966;7.210;2023-03-11T00:04:05;2.90;99.90
5697;DHT22;2873;50.966;7.210;2023-03-11T00:06:34;2.90;99.90
5697;DHT22;2873;50.966;7.210;2023-03-11T00:08:59;2.90;99.90
5697;DHT22;2873;50.966;7.210;2023-03-11T00:11:25;2.80;99.90
5697;DHT22;2873;50.966;7.210;2023-03-11T00:13:50;2.80;99.90
5697;DHT22;2873;50.966;7.210;2023-03-11T00:16:16;2.90;99.90
5697;DHT22;2873;50.966;7.210;2023-03-11T00:18:41;3.00;99.90
5697;DHT22;2873;50.966;7.210;2023-03-11T00:21:14;3.00;99.90
5697;DHT22;2873;50.966;7.210;2023-03-11T00:23:40;3.00;99.90
5697;DHT22;2873;50.966;7.210;2023-03-11T00:26:05;3.00;99.90
5697;DHT22;2873;50.966;7.210;2023-03-11T00:28:31;3.00;99.90
5697;DHT22;2873;50.966;7.210;2023-03-11T00:30:56;3.00;99.90
5697;DHT22;2873;50.966;7.210;2023-03-11T00:33:22;3.00;99.90
5697;DHT22;2873;50.966;7.210;2023-03-11T00:35:49;3.10;99.90
5697;DHT22;2873;50.966;7.210;2023-03-11T00:38:15;3.00;99.90
5697;DHT22;2873;50.966;7.210;2023-03-11T00:40:41;3.00;99.90
5697;DHT22;2873;50.966;7.210;2023-03-11T00:43:07;3.00;99.90
5697;DHT22;2873;50.966;7.210;2023-03-11T00:45:33;3.00;99.90
5697;DHT22;2873;50.966;7.210;2023-03-11T00:47:59;3.10;99.90
5697;DHT22;2873;50.966;7.210;2023-03-11T00:50:27;3.10;99.90
5697;DHT22;2873;50.966;7.210;2023-03-11T00:52:53;3.10;99.90
5697;DHT22;2873;50.966;7.210;2023-03-11T00:55:25;3.10;99.90
5697;DHT22;2873;50.966;7.210;2023-03-11T00:57:56;3.10;99.90
5697;DHT22;2873;50.966;7.210;2023-03-11T01:00:23;3.20;99.90
5697;DHT22;2873;50.966;7.210;2023-03-11T01:02:50;3.20;99.90
5697;DHT22;2873;50.966;7.210;2023-03-11T01:05:18;3.20;99.90
5697;DHT22;2873;50.966;7.210;2023-03-11T01:07:44;3.20;99.90
5697;DHT22;2873;50.966;7.210;2023-03-11T01:10:10;3.20;99.90
5697;DHT22;2873;50.966;7.210;2023-03-11T01:12:36;3.20;99.90
5697;DHT22;2873;50.966;7.210;2023-03-11T01:15:03;3.20;99.90
5697;DHT22;2873;50.966;7.210;2023-03-11T01:17:28;3.20;99.90
5697;DHT22;2873;50.966;7.210;2023-03-11T01:19:54;3.20;99.90
5697;DHT22;2873;50.966;7.210;2023-03-11T01:22:19;3.20;99.90
5697;DHT22;2873;50.966;7.210;2023-03-11T01:24:45;3.20;99.90
5697;DHT22;2873;50.966;7.210;2023-03-11T01:27:10;3.30;99.90
5697;DHT22;2873;50.966;7.210;2023-03-11T01:29:36;3.30;99.90
5697;DHT22;2873;50.966;7.210;2023-03-11T01:32:02;3.20;99.90
5697;DHT22;2873;50.966;7.210;2023-03-11T01:34:27;3.20;99.90
5697;DHT22;2873;50.966;7.210;2023-03-11T01:36:53;3.20;99.90
5697;DHT22;2873;50.966;7.210;2023-03-11T01:39:18;3.20;99.90
5697;DHT22;2873;50.966;7.210;2023-03-11T01:41:44;3.20;99.90
5697;DHT22;2873;50.966;7.210;2023-03-11T01:44:12;3.20;99.90
5697;DHT22;2873;50.966;7.210;2023-03-11T01:49:22;3.20;99.90
5697;DHT22;2873;50.966;7.210;2023-03-11T01:52:10;3.20;99.90
5697;DHT22;2873;50.966;7.210;2023-03-11T01:54:37;3.20;99.90
5697;DHT22;2873;50.966;7.210;2023-03-11T01:57:06;3.20;99.90
5697;DHT22;2873;50.966;7.210;2023-03-11T01:59:43;3.20;99.90
5697;DHT22;2873;50.966;7.210;2023-03-11T02:02:20;3.20;99.90
5697;DHT22;2873;50.966;7.210;2023-03-11T02:04:48;3.30;99.90
5697;DHT22;2873;50.966;7.210;2023-03-11T02:07:14;3.20;99.90
5697;DHT22;2873;50.966;7.210;2023-03-11T02:09:40;3.30;99.90
5697;DHT22;2873;50.966;7.210;2023-03-11T02:12:08;3.30;99.90
5697;DHT22;2873;50.966;7.210;2023-03-11T02:14:35;3.30;99.90
5697;DHT22;2873;50.966;7.210;2023-03-11T02:17:03;3.30;99.90
5697;DHT22;2873;50.966;7.210;2023-03-11T02:22:25;3.30;99.90
5697;DHT22;2873;50.966;7.210;2023-03-11T02:25:25;3.30;99.90
5697;DHT22;2873;50.966;7.210;2023-03-11T02:27:52;3.40;99.90
5697;DHT22;2873;50.966;7.210;2023-03-11T02:30:20;3.30;99.90
5697;DHT22;2873;50.966;7.210;2023-03-11T02:32:46;3.20;99.90
5697;DHT22;2873;50.966;7.210;2023-03-11T02:35:14;3.30;99.90
5697;DHT22;2873;50.966;7.210;2023-03-11T02:37:47;3.30;99.90
5697;DHT22;2873;50.966;7.210;2023-03-11T02:43:05;3.20;99.90
5697;DHT22;2873;50.966;7.210;2023-03-11T02:45:32;3.20;99.90
5697;DHT22;2873;50.966;7.210;2023-03-11T02:47:58;3.20;99.90
5697;DHT22;2873;50.966;7.210;2023-03-11T02:50:25;3.20;99.90
5697;DHT22;2873;50.966;7.210;2023-03-11T02:52:52;3.20;99.90
5697;DHT22;2873;50.966;7.210;2023-03-11T02:55:18;3.30;99.90
5697;DHT22;2873;50.966;7.210;2023-03-11T02:57:45;3.30;99.90
5697;DHT22;2873;50.966;7.210;2023-03-11T03:00:13;3.30;99.90
5697;DHT22;2873;50.966;7.210;2023-03-11T03:02:40;3.20;99.90
5697;DHT22;2873;50.966;7.210;2023-03-11T03:05:06;3.20;99.90
5697;DHT22;2873;50.966;7.210;2023-03-11T03:07:32;3.20;99.90
5697;DHT22;2873;50.966;7.210;2023-03-11T03:09:57;3.20;99.90
5697;DHT22;2873;50.966;7.210;2023-03-11T03:12:23;3.00;99.90
5697;DHT22;2873;50.966;7.210;2023-03-11T03:14:49;3.00;99.90
5697;DHT22;2873;50.966;7.210;2023-03-11T03:17:15;3.00;99.90
5697;DHT22;2873;50.966;7.210;2023-03-11T03:19:40;2.90;99.90
5697;DHT22;2873;50.966;7.210;2023-03-11T03:22:06;2.90;99.90
5697;DHT22;2873;50.966;7.210;2023-03-11T03:24:31;2.90;99.90
5697;DHT22;2873;50.966;7.210;2023-03-11T03:26:57;2.80;99.90
5697;DHT22;2873;50.966;7.210;2023-03-11T03:29:22;2.80;99.90
5697;DHT22;2873;50.966;7.210;2023-03-11T03:31:48;2.80;99.90
5697;DHT22;2873;50.966;7.210;2023-03-11T03:34:13;2.60;99.90
5697;DHT22;2873;50.966;7.210;2023-03-11T03:36:39;2.70;99.90
5697;DHT22;2873;50.966;7.210;2023-03-11T03:39:05;2.60;99.90
5697;DHT22;2873;50.966;7.210;2023-03-11T03:41:30;2.60;99.90
5697;DHT22;2873;50.966;7.210;2023-03-11T03:43:56;2.60;99.90
5697;DHT22;2873;50.966;7.210;2023-03-11T03:46:22;2.50;99.90
5697;DHT22;2873;50.966;7.210;2023-03-11T03:48:48;2.40;99.90
5697;DHT22;2873;50.966;7.210;2023-03-11T03:51:14;2.40;99.90
5697;DHT22;2873;50.966;7.210;2023-03-11T03:53:40;2.30;99.90
5697;DHT22;2873;50.966;7.210;2023-03-11T03:56:09;2.30;99.90
5697;DHT22;2873;50.966;7.210;2023-03-11T03:58:35;2.30;99.90
5697;DHT22;2873;50.966;7.210;2023-03-11T04:01:01;2.20;99.90
5697;DHT22;2873;50.966;7.210;2023-03-11T04:03:28;2.10;99.90
5697;DHT22;2873;50.966;7.210;2023-03-11T04:06:05;2.10;99.90
5697;DHT22;2873;50.966;7.210;2023-03-11T04:08:30;2.00;99.90
5697;DHT22;2873;50.966;7.210;2023-03-11T04:10:56;2.00;99.90
5697;DHT22;2873;50.966;7.210;2023-03-11T04:13:22;1.90;99.90
5697;DHT22;2873;50.966;7.210;2023-03-11T04:15:48;1.90;99.90
5697;DHT22;2873;50.966;7.210;2023-03-11T04:18:13;1.90;99.90
5697;DHT22;2873;50.966;7.210;2023-03-11T04:20:39;1.90;99.90
5697;DHT22;2873;50.966;7.210;2023-03-11T04:23:04;1.80;99.90
5697;DHT22;2873;50.966;7.210;2023-03-11T04:25:30;1.80;99.90
5697;DHT22;2873;50.966;7.210;2023-03-11T04:27:55;1.70;99.90
5697;DHT22;2873;50.966;7.210;2023-03-11T04:30:21;1.60;99.90
5697;DHT22;2873;50.966;7.210;2023-03-11T04:32:46;1.60;99.90
5697;DHT22;2873;50.966;7.210;2023-03-11T04:35:12;1.60;99.90
5697;DHT22;2873;50.966;7.210;2023-03-11T04:37:38;1.60;99.90
5697;DHT22;2873;50.966;7.210;2023-03-11T04:40:03;1.60;99.90
5697;DHT22;2873;50.966;7.210;2023-03-11T04:42:30;1.50;99.90
5697;DHT22;2873;50.966;7.210;2023-03-11T04:44:56;1.50;99.90
5697;DHT22;2873;50.966;7.210;2023-03-11T04:47:22;1.50;99.90
5697;DHT22;2873;50.966;7.210;2023-03-11T04:49:47;1.50;99.90
5697;DHT22;2873;50.966;7.210;2023-03-11T04:52:13;1.40;99.90
5697;DHT22;2873;50.966;7.210;2023-03-11T04:54:39;1.50;99.90
5697;DHT22;2873;50.966;7.210;2023-03-11T04:57:04;1.50;99.90
5697;DHT22;2873;50.966;7.210;2023-03-11T04:59:30;1.50;99.90
5697;DHT22;2873;50.966;7.210;2023-03-11T05:01:55;1.50;99.90
5697;DHT22;2873;50.966;7.210;2023-03-11T05:04:21;1.50;99.90
5697;DHT22;2873;50.966;7.210;2023-03-11T05:06:47;1.60;99.90
5697;DHT22;2873;50.966;7.210;2023-03-11T05:09:15;1.60;99.90
5697;DHT22;2873;50.966;7.210;2023-03-11T05:11:41;1.60;99.90
5697;DHT22;2873;50.966;7.210;2023-03-11T05:14:06;1.60;99.90
5697;DHT22;2873;50.966;7.210;2023-03-11T05:16:32;1.60;99.90
5697;DHT22;2873;50.966;7.210;2023-03-11T05:18:58;1.50;99.90
5697;DHT22;2873;50.966;7.210;2023-03-11T05:21:23;1.60;99.90
5697;DHT22;2873;50.966;7.210;2023-03-11T05:23:49;1.50;99.90
5697;DHT22;2873;50.966;7.210;2023-03-11T05:26:14;1.60;99.90
5697;DHT22;2873;50.966;7.210;2023-03-11T05:28:40;1.60;99.90
5697;DHT22;2873;50.966;7.210;2023-03-11T05:31:09;1.70;99.90
5697;DHT22;2873;50.966;7.210;2023-03-11T05:33:35;1.70;99.90
5697;DHT22;2873;50.966;7.210;2023-03-11T05:36:05;1.70;99.90
5697;DHT22;2873;50.966;7.210;2023-03-11T05:38:31;1.60;99.90
5697;DHT22;2873;50.966;7.210;2023-03-11T05:40:57;1.50;99.90
5697;DHT22;2873;50.966;7.210;2023-03-11T05:43:22;1.50;99.90
5697;DHT22;2873;50.966;7.210;2023-03-11T05:45:48;1.50;99.90
5697;DHT22;2873;50.966;7.210;2023-03-11T05:48:13;1.50;99.90
5697;DHT22;2873;50.966;7.210;2023-03-11T05:50:39;1.50;99.90
5697;DHT22;2873;50.966;7.210;2023-03-11T05:53:04;1.50;99.90
5697;DHT22;2873;50.966;7.210;2023-03-11T05:55:30;1.50;99.90
5697;DHT22;2873;50.966;7.210;2023-03-11T05:57:55;1.50;99.90
5697;DHT22;2873;50.966;7.210;2023-03-11T06:00:21;1.50;99.90
5697;DHT22;2873;50.966;7.210;2023-03-11T06:02:46;1.50;99.90
5697;DHT22;2873;50.966;7.210;2023-03-11T06:05:12;1.40;99.90
5697;DHT22;2873;50.966;7.210;2023-03-11T06:07:38;1.40;99.90
5697;DHT22;2873;50.966;7.210;2023-03-11T06:10:04;1.40;99.90
5697;DHT22;2873;50.966;7.210;2023-03-11T06:12:30;1.40;99.90
5697;DHT22;2873;50.966;7.210;2023-03-11T06:14:57;1.40;99.90
5697;DHT22;2873;50.966;7.210;2023-03-11T06:17:23;1.40;99.90
5697;DHT22;2873;50.966;7.210;2023-03-11T06:19:48;1.40;99.90
5697;DHT22;2873;50.966;7.210;2023-03-11T06:22:14;1.40;99.90
5697;DHT22;2873;50.966;7.210;2023-03-11T06:24:40;1.40;99.90
5697;DHT22;2873;50.966;7.210;2023-03-11T06:27:05;1.40;99.90
5697;DHT22;2873;50.966;7.210;2023-03-11T06:29:31;1.40;99.90
5697;DHT22;2873;50.966;7.210;2023-03-11T06:31:56;1.40;99.90
5697;DHT22;2873;50.966;7.210;2023-03-11T06:34:22;1.50;99.90
5697;DHT22;2873;50.966;7.210;2023-03-11T06:36:48;1.60;99.90
5697;DHT22;2873;50.966;7.210;2023-03-11T06:39:14;1.70;99.90
5697;DHT22;2873;50.966;7.210;2023-03-11T06:41:40;1.80;99.90
5697;DHT22;2873;50.966;7.210;2023-03-11T06:44:06;1.90;99.90
5697;DHT22;2873;50.966;7.210;2023-03-11T06:46:31;2.00;99.90
5697;DHT22;2873;50.966;7.210;2023-03-11T06:48:57;2.10;99.90
5697;DHT22;2873;50.966;7.210;2023-03-11T06:51:23;2.20;99.90
5697;DHT22;2873;50.966;7.210;2023-03-11T06:53:50;2.30;99.90
5697;DHT22;2873;50.966;7.210;2023-03-11T06:56:16;2.40;99.90
5697;DHT22;2873;50.966;7.210;2023-03-11T06:58:42;2.50;99.90
5697;DHT22;2873;50.966;7.210;2023-03-11T07:01:15;2.50;99.90
5697;DHT22;2873;50.966;7.210;2023-03-11T07:03:41;2.60;99.90
5697;DHT22;2873;50.966;7.210;2023-03-11T07:06:12;2.50;99.90
5697;DHT22;2873;50.966;7.210;2023-03-11T07:08:38;2.50;99.90
5697;DHT22;2873;50.966;7.210;2023-03-11T07:11:06;2.60;99.90
5697;DHT22;2873;50.966;7.210;2023-03-11T07:13:32;2.60;99.90
5697;DHT22;2873;50.966;7.210;2023-03-11T07:16:08;2.60;99.90
5697;DHT22;2873;50.966;7.210;2023-03-11T07:18:34;2.70;99.90
5697;DHT22;2873;50.966;7.210;2023-03-11T07:21:02;2.70;99.90
5697;DHT22;2873;50.966;7.210;2023-03-11T07:23:27;2.90;99.90
5697;DHT22;2873;50.966;7.210;2023-03-11T07:25:53;2.90;99.90
5697;DHT22;2873;50.966;7.210;2023-03-11T07:28:20;2.90;99.90
5697;DHT22;2873;50.966;7.210;2023-03-11T07:30:46;2.90;99.90
5697;DHT22;2873;50.966;7.210;2023-03-11T07:33:13;2.90;99.90
5697;DHT22;2873;50.966;7.210;2023-03-11T07:35:38;3.00;99.90
5697;DHT22;2873;50.966;7.210;2023-03-11T07:38:04;3.00;99.90
5697;DHT22;2873;50.966;7.210;2023-03-11T07:40:29;3.10;99.90
5697;DHT22;2873;50.966;7.210;2023-03-11T07:42:55;3.10;99.90
5697;DHT22;2873;50.966;7.210;2023-03-11T07:45:23;3.20;99.90
5697;DHT22;2873;50.966;7.210;2023-03-11T07:47:49;3.20;99.90
5697;DHT22;2873;50.966;7.210;2023-03-11T07:50:14;3.40;99.90
5697;DHT22;2873;50.966;7.210;2023-03-11T07:52:41;3.50;99.90
5697;DHT22;2873;50.966;7.210;2023-03-11T07:55:07;3.60;99.90
5697;DHT22;2873;50.966;7.210;2023-03-11T07:57:33;3.60;99.90
5697;DHT22;2873;50.966;7.210;2023-03-11T07:59:59;3.60;99.90
5697;DHT22;2873;50.966;7.210;2023-03-11T08:02:25;3.60;99.90
5697;DHT22;2873;50.966;7.210;2023-03-11T08:04:50;3.70;99.90
5697;DHT22;2873;50.966;7.210;2023-03-11T08:07:16;3.70;99.90
5697;DHT22;2873;50.966;7.210;2023-03-11T08:09:41;3.70;99.90
5697;DHT22;2873;50.966;7.210;2023-03-11T08:12:07;3.70;99.90
5697;DHT22;2873;50.966;7.210;2023-03-11T08:14:33;3.70;99.90
5697;DHT22;2873;50.966;7.210;2023-03-11T08:16:58;3.80;99.90
5697;DHT22;2873;50.966;7.210;2023-03-11T08:19:24;3.80;99.90
5697;DHT22;2873;50.966;7.210;2023-03-11T08:21:49;3.90;99.90
5697;DHT22;2873;50.966;7.210;2023-03-11T08:24:15;3.90;99.90
5697;DHT22;2873;50.966;7.210;2023-03-11T08:26:41;3.90;99.90
5697;DHT22;2873;50.966;7.210;2023-03-11T08:29:06;4.00;99.90
5697;DHT22;2873;50.966;7.210;2023-03-11T08:31:33;4.00;99.90
5697;DHT22;2873;50.966;7.210;2023-03-11T08:34:05;4.20;99.90
5697;DHT22;2873;50.966;7.210;2023-03-11T08:36:31;4.20;99.90
5697;DHT22;2873;50.966;7.210;2023-03-11T08:38:57;4.30;99.90
5697;DHT22;2873;50.966;7.210;2023-03-11T08:41:23;4.40;99.90
5697;DHT22;2873;50.966;7.210;2023-03-11T08:43:49;4.50;99.90
5697;DHT22;2873;50.966;7.210;2023-03-11T08:46:28;4.60;99.90
5697;DHT22;2873;50.966;7.210;2023-03-11T08:48:54;4.70;99.90
5697;DHT22;2873;50.966;7.210;2023-03-11T08:51:21;4.80;99.90
5697;DHT22;2873;50.966;7.210;2023-03-11T08:53:46;4.90;99.90
5697;DHT22;2873;50.966;7.210;2023-03-11T08:56:12;5.00;99.90
5697;DHT22;2873;50.966;7.210;2023-03-11T08:58:38;5.20;99.90
5697;DHT22;2873;50.966;7.210;2023-03-11T09:01:04;5.40;99.90
5697;DHT22;2873;50.966;7.210;2023-03-11T09:03:32;5.70;99.90
5697;DHT22;2873;50.966;7.210;2023-03-11T09:05:59;5.90;99.90
5697;DHT22;2873;50.966;7.210;2023-03-11T09:08:26;6.10;99.90
5697;DHT22;2873;50.966;7.210;2023-03-11T09:10:52;6.20;99.90
5697;DHT22;2873;50.966;7.210;2023-03-11T09:13:17;6.30;99.90
5697;DHT22;2873;50.966;7.210;2023-03-11T09:15:43;6.40;99.90
5697;DHT22;2873;50.966;7.210;2023-03-11T09:18:12;6.60;99.90
5697;DHT22;2873;50.966;7.210;2023-03-11T09:20:39;6.80;99.90
5697;DHT22;2873;50.966;7.210;2023-03-11T09:23:05;6.80;99.90
5697;DHT22;2873;50.966;7.210;2023-03-11T09:25:31;7.00;99.90
5697;DHT22;2873;50.966;7.210;2023-03-11T09:27:56;7.30;99.90
5697;DHT22;2873;50.966;7.210;2023-03-11T09:30:22;7.40;99.90
5697;DHT22;2873;50.966;7.210;2023-03-11T09:32:48;7.70;99.90
5697;DHT22;2873;50.966;7.210;2023-03-11T09:35:13;7.90;99.90
5697;DHT22;2873;50.966;7.210;2023-03-11T09:37:39;8.10;99.90
5697;DHT22;2873;50.966;7.210;2023-03-11T09:40:05;8.30;99.90
5697;DHT22;2873;50.966;7.210;2023-03-11T09:43:00;8.90;99.90
5697;DHT22;2873;50.966;7.210;2023-03-11T09:45:35;9.00;99.90
5697;DHT22;2873;50.966;7.210;2023-03-11T09:50:46;9.90;99.90
5697;DHT22;2873;50.966;7.210;2023-03-11T09:53:31;13.50;99.90
5697;DHT22;2873;50.966;7.210;2023-03-11T09:56:01;13.70;99.90
5697;DHT22;2873;50.966;7.210;2023-03-11T10:01:31;12.00;96.40
5697;DHT22;2873;50.966;7.210;2023-03-11T10:04:40;12.80;96.20
5697;DHT22;2873;50.966;7.210;2023-03-11T10:06:47;12.50;94.80
5697;DHT22;2873;50.966;7.210;2023-03-11T10:11:49;16.60;92.70
5697;DHT22;2873;50.966;7.210;2023-03-11T10:14:33;20.70;84.90
5697;DHT22;2873;50.966;7.210;2023-03-11T10:20:00;24.80;71.50
5697;DHT22;2873;50.966;7.210;2023-03-11T10:22:38;26.70;68.60
5697;DHT22;2873;50.966;7.210;2023-03-11T10:28:12;26.00;60.40
5697;DHT22;2873;50.966;7.210;2023-03-11T10:30:57;24.90;60.50
5697;DHT22;2873;50.966;7.210;2023-03-11T10:33:42;26.80;54.80
5697;DHT22;2873;50.966;7.210;2023-03-11T10:36:24;28.20;54.20
5697;DHT22;2873;50.966;7.210;2023-03-11T10:38:54;28.70;53.50
5697;DHT22;2873;50.966;7.210;2023-03-11T10:41:26;29.10;55.20
5697;DHT22;2873;50.966;7.210;2023-03-11T10:44:12;30.50;54.50
5697;DHT22;2873;50.966;7.210;2023-03-11T10:46:39;31.40;52.70
5697;DHT22;2873;50.966;7.210;2023-03-11T10:49:15;31.80;51.20
5697;DHT22;2873;50.966;7.210;2023-03-11T10:51:45;29.10;49.80
5697;DHT22;2873;50.966;7.210;2023-03-11T10:54:22;25.80;51.00
5697;DHT22;2873;50.966;7.210;2023-03-11T10:56:54;23.30;51.10
5697;DHT22;2873;50.966;7.210;2023-03-11T11:01:59;19.80;52.80
5697;DHT22;2873;50.966;7.210;2023-03-11T11:04:39;18.60;54.00
5697;DHT22;2873;50.966;7.210;2023-03-11T11:07:31;19.30;57.20
5697;DHT22;2873;50.966;7.210;2023-03-11T11:10:21;21.30;57.10
5697;DHT22;2873;50.966;7.210;2023-03-11T11:15:28;23.20;57.10
5697;DHT22;2873;50.966;7.210;2023-03-11T11:18:00;24.20;57.00
5697;DHT22;2873;50.966;7.210;2023-03-11T11:20:27;23.50;54.60
5697;DHT22;2873;50.966;7.210;2023-03-11T11:23:03;21.90;53.20
5697;DHT22;2873;50.966;7.210;2023-03-11T11:25:35;20.10;53.40
5697;DHT22;2873;50.966;7.210;2023-03-11T11:28:13;18.70;54.20
5697;DHT22;2873;50.966;7.210;2023-03-11T11:30:55;17.60;55.60
5697;DHT22;2873;50.966;7.210;2023-03-11T11:33:28;17.00;57.10
5697;DHT22;2873;50.966;7.210;2023-03-11T11:35:56;16.60;59.20
5697;DHT22;2873;50.966;7.210;2023-03-11T11:38:26;15.90;59.10
5697;DHT22;2873;50.966;7.210;2023-03-11T11:40:54;15.30;59.70
5697;DHT22;2873;50.966;7.210;2023-03-11T11:43:52;14.60;58.70
5697;DHT22;2873;50.966;7.210;2023-03-11T11:46:33;13.60;58.50
5697;DHT22;2873;50.966;7.210;2023-03-11T11:49:23;13.20;59.90
5697;DHT22;2873;50.966;7.210;2023-03-11T11:54:34;13.30;63.60
5697;DHT22;2873;50.966;7.210;2023-03-11T11:57:11;12.80;63.10
5697;DHT22;2873;50.966;7.210;2023-03-11T11:59:37;12.30;62.40
5697;DHT22;2873;50.966;7.210;2023-03-11T12:05:11;12.70;62.70
5697;DHT22;2873;50.966;7.210;2023-03-11T12:10:48;14.80;63.80
5697;DHT22;2873;50.966;7.210;2023-03-11T12:16:09;14.70;63.60
5697;DHT22;2873;50.966;7.210;2023-03-11T12:18:49;14.40;63.80
5697;DHT22;2873;50.966;7.210;2023-03-11T12:26:48;14.80;64.30
5697;DHT22;2873;50.966;7.210;2023-03-11T12:29:30;16.70;64.10
5697;DHT22;2873;50.966;7.210;2023-03-11T12:31:56;18.20;64.50
5697;DHT22;2873;50.966;7.210;2023-03-11T12:34:24;17.50;62.30
5697;DHT22;2873;50.966;7.210;2023-03-11T12:36:50;17.70;61.60
5697;DHT22;2873;50.966;7.210;2023-03-11T12:39:28;18.20;61.30
5697;DHT22;2873;50.966;7.210;2023-03-11T12:44:40;16.30;59.30
5697;DHT22;2873;50.966;7.210;2023-03-11T12:49:42;14.70;61.60
5697;DHT22;2873;50.966;7.210;2023-03-11T12:54:39;13.60;63.20
5697;DHT22;2873;50.966;7.210;2023-03-11T13:08:33;12.30;64.60
5697;DHT22;2873;50.966;7.210;2023-03-11T13:11:54;12.20;63.70
5697;DHT22;2873;50.966;7.210;2023-03-11T13:16:39;13.00;66.00
5697;DHT22;2873;50.966;7.210;2023-03-11T13:22:00;16.00;64.70
5697;DHT22;2873;50.966;7.210;2023-03-11T13:35:39;16.30;60.10
5697;DHT22;2873;50.966;7.210;2023-03-11T13:40:52;16.50;61.40
5697;DHT22;2873;50.966;7.210;2023-03-11T13:43:23;17.60;61.00
5697;DHT22;2873;50.966;7.210;2023-03-11T13:45:56;17.40;60.00
5697;DHT22;2873;50.966;7.210;2023-03-11T13:48:32;17.40;60.50
5697;DHT22;2873;50.966;7.210;2023-03-11T13:51:03;18.40;62.70
5697;DHT22;2873;50.966;7.210;2023-03-11T13:53:39;17.20;60.10
5697;DHT22;2873;50.966;7.210;2023-03-11T13:56:25;16.30;60.30
5697;DHT22;2873;50.966;7.210;2023-03-11T13:58:51;15.70;60.10
5697;DHT22;2873;50.966;7.210;2023-03-11T14:01:17;15.00;60.30
5697;DHT22;2873;50.966;7.210;2023-03-11T14:03:45;16.00;62.80
5697;DHT22;2873;50.966;7.210;2023-03-11T14:06:16;17.20;61.50
5697;DHT22;2873;50.966;7.210;2023-03-11T14:08:55;16.20;61.50
5697;DHT22;2873;50.966;7.210;2023-03-11T14:11:25;15.80;61.40
5697;DHT22;2873;50.966;7.210;2023-03-11T14:13:51;15.30;62.30
5697;DHT22;2873;50.966;7.210;2023-03-11T14:16:36;15.10;63.20
5697;DHT22;2873;50.966;7.210;2023-03-11T14:19:17;15.60;63.30
5697;DHT22;2873;50.966;7.210;2023-03-11T14:21:46;17.90;64.10
5697;DHT22;2873;50.966;7.210;2023-03-11T14:24:30;19.60;63.20
5697;DHT22;2873;50.966;7.210;2023-03-11T14:26:59;21.30;63.00
5697;DHT22;2873;50.966;7.210;2023-03-11T14:29:34;22.50;62.60
5697;DHT22;2873;50.966;7.210;2023-03-11T14:32:28;23.20;61.50
5697;DHT22;2873;50.966;7.210;2023-03-11T14:34:54;23.60;59.00
5697;DHT22;2873;50.966;7.210;2023-03-11T14:37:34;24.10;56.50
5697;DHT22;2873;50.966;7.210;2023-03-11T14:40:00;24.50;56.90
5697;DHT22;2873;50.966;7.210;2023-03-11T14:42:33;24.20;55.00
5697;DHT22;2873;50.966;7.210;2023-03-11T14:45:17;24.10;54.20
5697;DHT22;2873;50.966;7.210;2023-03-11T14:50:28;21.10;52.30
5697;DHT22;2873;50.966;7.210;2023-03-11T14:58:02;16.30;56.10
5697;DHT22;2873;50.966;7.210;2023-03-11T15:00:34;15.20;57.10
5697;DHT22;2873;50.966;7.210;2023-03-11T15:03:13;14.50;57.80
5697;DHT22;2873;50.966;7.210;2023-03-11T15:05:59;13.60;58.80
5697;DHT22;2873;50.966;7.210;2023-03-11T15:08:29;12.70;59.80
5697;DHT22;2873;50.966;7.210;2023-03-11T15:13:37;12.10;62.50
5697;DHT22;2873;50.966;7.210;2023-03-11T15:16:06;11.70;62.30
5697;DHT22;2873;50.966;7.210;2023-03-11T15:18:36;11.60;63.50
5697;DHT22;2873;50.966;7.210;2023-03-11T15:23:45;11.40;64.40
5697;DHT22;2873;50.966;7.210;2023-03-11T15:26:21;11.70;64.90
5697;DHT22;2873;50.966;7.210;2023-03-11T15:29:02;12.80;66.40
5697;DHT22;2873;50.966;7.210;2023-03-11T15:31:36;13.60;66.40
5697;DHT22;2873;50.966;7.210;2023-03-11T15:46:57;13.60;63.30
5697;DHT22;2873;50.966;7.210;2023-03-11T15:49:25;13.70;64.20
5697;DHT22;2873;50.966;7.210;2023-03-11T15:51:50;13.40;62.60
5697;DHT22;2873;50.966;7.210;2023-03-11T15:54:16;13.10;61.90
5697;DHT22;2873;50.966;7.210;2023-03-11T15:56:42;12.60;62.30
5697;DHT22;2873;50.966;7.210;2023-03-11T15:59:15;12.40;62.60
5697;DHT22;2873;50.966;7.210;2023-03-11T16:01:41;12.20;63.50
5697;DHT22;2873;50.966;7.210;2023-03-11T16:04:15;11.80;63.70
5697;DHT22;2873;50.966;7.210;2023-03-11T16:06:42;11.80;63.60
5697;DHT22;2873;50.966;7.210;2023-03-11T16:09:08;12.00;63.60
5697;DHT22;2873;50.966;7.210;2023-03-11T16:11:34;12.10;63.40
5697;DHT22;2873;50.966;7.210;2023-03-11T16:14:00;12.10;63.00
5697;DHT22;2873;50.966;7.210;2023-03-11T16:16:26;12.10;62.80
5697;DHT22;2873;50.966;7.210;2023-03-11T16:18:52;12.00;61.40
5697;DHT22;2873;50.966;7.210;2023-03-11T16:21:19;11.60;61.30
5697;DHT22;2873;50.966;7.210;2023-03-11T16:23:46;11.60;62.20
5697;DHT22;2873;50.966;7.210;2023-03-11T16:26:13;11.80;63.70
5697;DHT22;2873;50.966;7.210;2023-03-11T16:28:39;11.70;63.90
5697;DHT22;2873;50.966;7.210;2023-03-11T16:31:05;11.60;62.60
5697;DHT22;2873;50.966;7.210;2023-03-11T16:33:34;11.40;62.40
5697;DHT22;2873;50.966;7.210;2023-03-11T16:36:00;11.40;63.40
5697;DHT22;2873;50.966;7.210;2023-03-11T16:38:25;11.20;63.40
5697;DHT22;2873;50.966;7.210;2023-03-11T16:40:57;11.10;64.60
5697;DHT22;2873;50.966;7.210;2023-03-11T16:43:23;11.00;65.40
5697;DHT22;2873;50.966;7.210;2023-03-11T16:45:48;10.80;66.20
5697;DHT22;2873;50.966;7.210;2023-03-11T16:48:14;10.70;67.40
5697;DHT22;2873;50.966;7.210;2023-03-11T16:50:40;10.50;68.20
5697;DHT22;2873;50.966;7.210;2023-03-11T16:53:05;10.20;66.70
5697;DHT22;2873;50.966;7.210;2023-03-11T16:55:31;10.20;67.50
5697;DHT22;2873;50.966;7.210;2023-03-11T16:57:56;10.00;66.70
5697;DHT22;2873;50.966;7.210;2023-03-11T17:00:23;9.70;67.70
5697;DHT22;2873;50.966;7.210;2023-03-11T17:02:51;9.60;67.70
5697;DHT22;2873;50.966;7.210;2023-03-11T17:05:17;9.40;68.60
5697;DHT22;2873;50.966;7.210;2023-03-11T17:07:42;9.10;68.60
5697;DHT22;2873;50.966;7.210;2023-03-11T17:10:10;8.80;68.40
5697;DHT22;2873;50.966;7.210;2023-03-11T17:12:36;8.50;71.70
5697;DHT22;2873;50.966;7.210;2023-03-11T17:15:03;8.30;73.10
5697;DHT22;2873;50.966;7.210;2023-03-11T17:17:29;8.20;73.70
5697;DHT22;2873;50.966;7.210;2023-03-11T17:19:55;7.90;72.30
5697;DHT22;2873;50.966;7.210;2023-03-11T17:22:20;7.60;71.00
5697;DHT22;2873;50.966;7.210;2023-03-11T17:24:46;7.40;70.90
5697;DHT22;2873;50.966;7.210;2023-03-11T17:27:12;7.20;71.40
5697;DHT22;2873;50.966;7.210;2023-03-11T17:29:37;7.00;71.70
5697;DHT22;2873;50.966;7.210;2023-03-11T17:32:03;6.80;72.20
5697;DHT22;2873;50.966;7.210;2023-03-11T17:34:31;6.70;72.60
5697;DHT22;2873;50.966;7.210;2023-03-11T17:36:56;6.70;73.60
5697;DHT22;2873;50.966;7.210;2023-03-11T17:39:22;6.60;75.20
5697;DHT22;2873;50.966;7.210;2023-03-11T17:41:48;6.50;75.80
5697;DHT22;2873;50.966;7.210;2023-03-11T17:44:13;6.40;76.30
5697;DHT22;2873;50.966;7.210;2023-03-11T17:46:39;6.40;77.00
5697;DHT22;2873;50.966;7.210;2023-03-11T17:49:05;6.30;77.10
5697;DHT22;2873;50.966;7.210;2023-03-11T17:51:31;6.30;79.00
5697;DHT22;2873;50.966;7.210;2023-03-11T17:53:57;6.20;80.40
5697;DHT22;2873;50.966;7.210;2023-03-11T17:56:24;6.10;81.80
5697;DHT22;2873;50.966;7.210;2023-03-11T17:58:50;6.10;83.90
5697;DHT22;2873;50.966;7.210;2023-03-11T18:01:19;6.00;84.90
5697;DHT22;2873;50.966;7.210;2023-03-11T18:03:45;5.90;85.50
5697;DHT22;2873;50.966;7.210;2023-03-11T18:06:11;5.90;85.90
5697;DHT22;2873;50.966;7.210;2023-03-11T18:08:37;5.80;86.50
5697;DHT22;2873;50.966;7.210;2023-03-11T18:11:09;5.70;87.30